Paradise Park, NE

6:06 AM CST on January 21, 2017 (GMT -0600)
Olde Towne | | Change Station
Active Advisory: Dense Fog Advisory

Elev 1050 ft 41.13 °N, 95.89 °W | Updated 47 days ago

Overcast
Overcast
43.3 °F
Feels Like 43 °F
N
0.1
Wind Variable Wind from SW
Gusts 0.1 mph

Today
High -- | Low -- °F
--% Chance of Precip.
Yesterday
High -- | Low -- °F
Precip. -- in
Pressure 29.41 in
Visibility 4.0 miles
Clouds Mostly Cloudy 200 ft
Overcast 5000 ft
Windchill 43 °F
Dew Point 37 °F
Humidity 77%
Rainfall in
Snow Depth Not available.
7:43 AM 5:27 PM
Waning Crescent, 35% visible
METAR KOFF 211158Z 26004KT 4SM BR BKN002 OVC050 04/04 A2938 RMK AO2A VIS 2 RWY30 CIG 002 RWY30 SLP958 60000 70004 T00400040 10051 20040 55001 $
Pressure 29.41 in
Visibility 4.0 miles
Clouds Mostly Cloudy 200 ft
Overcast 5000 ft
Windchill 43 °F
Dew Point 37 °F
Humidity 77%
Rainfall in
Snow Depth Not available.
7:43 AM 5:27 PM
Waning Crescent, 35% visible
METAR KOFF 211158Z 26004KT 4SM BR BKN002 OVC050 04/04 A2938 RMK AO2A VIS 2 RWY30 CIG 002 RWY30 SLP958 60000 70004 T00400040 10051 20040 55001 $

Get Your Daily Forecast Email!

Thanks for signing up!

Be on the lookout for a verification email in your inbox.

You'll start receiving the daily forecast at 8 AM.

×

10-Day Weather Forecast

Almanac

Astronomy

Jan. 21, 2017 Rise Set
Actual Time
Civil Twilight
Nautical Twilight
Astronomical Twilight
Moon
Length of Visible Light
Length of Day
Tomorrow will be .
, % of the Moon is Illuminated

Today's Extremes

State Highs State Lows

Community

WunderPhotos

Upload Photos

1,962,540 photos uploaded!

WunderBlog® & News

Nearby

Air Quality

  Air Quality AQ Index Pollutant
Not available.

Snow Depth

Station Depth Elevation

Earthquake Activity

City Distance Mag. Time & Date
Minimum magnitude displayed is 2.5.

Coastal Water Temperatures

Place Temperature

Stations

Nearby Weather Stations

Station Location Temp. Windchill Dew Point Humidity Wind Precip. Elev Updated Type
                   

Watches & Warnings

Dense Fog Advisory
Issued: 3:11 AM CST Jan. 21, 2017 – National Weather Service

... Dense fog advisory remains in effect until 9 am CST this
morning...

* visibility... visibilities of a quarter mile or less can be
expected at many locations through sunrise. Conditions will
improve from west to east across the area this morning.

* Impacts... drivers are encouraged to slow down and allow extra
time to reach destinations.

Precautionary/preparedness actions...

A dense fog advisory means visibilities will frequently be
reduced to less than one quarter mile. If driving... slow down...
use your headlights... and leave plenty of distance ahead of you.